sensor_id;sensor_type;location;lat;lon;timestamp;P1;durP1;ratioP1;P2;durP2;ratioP2
10162;SDS011;5123;52.556;13.384;2022-09-09T00:00:49;9.80;;;8.93;;
10162;SDS011;5123;52.556;13.384;2022-09-09T00:03:44;11.00;;;9.03;;
10162;SDS011;5123;52.556;13.384;2022-09-09T00:06:43;11.07;;;9.83;;
10162;SDS011;5123;52.556;13.384;2022-09-09T00:09:35;10.50;;;9.13;;
10162;SDS011;5123;52.556;13.384;2022-09-09T00:12:33;10.60;;;9.53;;
10162;SDS011;5123;52.556;13.384;2022-09-09T00:15:25;12.40;;;9.10;;
10162;SDS011;5123;52.556;13.384;2022-09-09T00:18:21;13.13;;;8.60;;
10162;SDS011;5123;52.556;13.384;2022-09-09T00:21:14;9.60;;;8.60;;
10162;SDS011;5123;52.556;13.384;2022-09-09T00:24:09;9.87;;;8.87;;
10162;SDS011;5123;52.556;13.384;2022-09-09T00:27:04;11.47;;;9.47;;
10162;SDS011;5123;52.556;13.384;2022-09-09T00:29:57;10.23;;;9.20;;
10162;SDS011;5123;52.556;13.384;2022-09-09T00:32:50;10.43;;;9.33;;
10162;SDS011;5123;52.556;13.384;2022-09-09T00:35:46;11.03;;;9.40;;
10162;SDS011;5123;52.556;13.384;2022-09-09T00:38:40;10.30;;;9.27;;
10162;SDS011;5123;52.556;13.384;2022-09-09T00:41:36;9.83;;;8.93;;
10162;SDS011;5123;52.556;13.384;2022-09-09T00:44:31;9.57;;;8.70;;
10162;SDS011;5123;52.556;13.384;2022-09-09T00:47:29;13.20;;;9.73;;
10162;SDS011;5123;52.556;13.384;2022-09-09T00:50:32;10.10;;;9.10;;
10162;SDS011;5123;52.556;13.384;2022-09-09T00:53:30;12.53;;;9.43;;
10162;SDS011;5123;52.556;13.384;2022-09-09T00:56:24;10.57;;;9.50;;
10162;SDS011;5123;52.556;13.384;2022-09-09T00:59:21;11.80;;;9.60;;
10162;SDS011;5123;52.556;13.384;2022-09-09T01:02:21;10.00;;;9.00;;
10162;SDS011;5123;52.556;13.384;2022-09-09T01:05:18;12.30;;;9.40;;
10162;SDS011;5123;52.556;13.384;2022-09-09T01:08:12;10.57;;;9.47;;
10162;SDS011;5123;52.556;13.384;2022-09-09T01:11:12;10.17;;;9.27;;
10162;SDS011;5123;52.556;13.384;2022-09-09T01:14:10;11.20;;;10.20;;
10162;SDS011;5123;52.556;13.384;2022-09-09T01:17:03;10.40;;;9.43;;
10162;SDS011;5123;52.556;13.384;2022-09-09T01:19:59;10.33;;;9.33;;
10162;SDS011;5123;52.556;13.384;2022-09-09T01:22:57;10.83;;;9.83;;
10162;SDS011;5123;52.556;13.384;2022-09-09T01:29:04;10.93;;;9.83;;
10162;SDS011;5123;52.556;13.384;2022-09-09T01:31:58;10.87;;;9.73;;
10162;SDS011;5123;52.556;13.384;2022-09-09T01:34:50;10.57;;;9.57;;
10162;SDS011;5123;52.556;13.384;2022-09-09T01:37:42;10.57;;;9.47;;
10162;SDS011;5123;52.556;13.384;2022-09-09T01:40:33;10.50;;;9.43;;
10162;SDS011;5123;52.556;13.384;2022-09-09T01:43:25;11.93;;;9.60;;
10162;SDS011;5123;52.556;13.384;2022-09-09T01:46:19;11.33;;;10.23;;
10162;SDS011;5123;52.556;13.384;2022-09-09T01:49:12;10.27;;;9.17;;
10162;SDS011;5123;52.556;13.384;2022-09-09T01:52:03;10.37;;;9.37;;
10162;SDS011;5123;52.556;13.384;2022-09-09T01:54:55;15.20;;;9.83;;
10162;SDS011;5123;52.556;13.384;2022-09-09T01:57:49;10.53;;;9.63;;
10162;SDS011;5123;52.556;13.384;2022-09-09T02:00:43;11.43;;;10.33;;
10162;SDS011;5123;52.556;13.384;2022-09-09T02:03:36;10.57;;;9.57;;
10162;SDS011;5123;52.556;13.384;2022-09-09T02:06:30;10.40;;;9.30;;
10162;SDS011;5123;52.556;13.384;2022-09-09T02:09:22;11.37;;;10.17;;
10162;SDS011;5123;52.556;13.384;2022-09-09T02:12:14;11.93;;;10.77;;
10162;SDS011;5123;52.556;13.384;2022-09-09T02:15:08;10.13;;;9.13;;
10162;SDS011;5123;52.556;13.384;2022-09-09T02:18:01;13.90;;;10.37;;
10162;SDS011;5123;52.556;13.384;2022-09-09T02:20:59;11.40;;;10.30;;
10162;SDS011;5123;52.556;13.384;2022-09-09T02:23:50;11.07;;;10.07;;
10162;SDS011;5123;52.556;13.384;2022-09-09T02:26:43;11.53;;;10.47;;
10162;SDS011;5123;52.556;13.384;2022-09-09T02:29:36;10.57;;;9.47;;
10162;SDS011;5123;52.556;13.384;2022-09-09T02:32:30;11.27;;;10.17;;
10162;SDS011;5123;52.556;13.384;2022-09-09T02:35:23;10.73;;;9.67;;
10162;SDS011;5123;52.556;13.384;2022-09-09T02:38:18;12.03;;;9.63;;
10162;SDS011;5123;52.556;13.384;2022-09-09T02:41:11;9.87;;;8.97;;
10162;SDS011;5123;52.556;13.384;2022-09-09T02:44:04;9.93;;;8.93;;
10162;SDS011;5123;52.556;13.384;2022-09-09T02:47:04;9.83;;;8.83;;
10162;SDS011;5123;52.556;13.384;2022-09-09T02:50:01;10.03;;;9.00;;
10162;SDS011;5123;52.556;13.384;2022-09-09T02:53:00;10.00;;;9.07;;
10162;SDS011;5123;52.556;13.384;2022-09-09T02:55:54;9.70;;;8.70;;
10162;SDS011;5123;52.556;13.384;2022-09-09T02:58:49;9.73;;;8.53;;
10162;SDS011;5123;52.556;13.384;2022-09-09T03:01:41;11.00;;;8.70;;
10162;SDS011;5123;52.556;13.384;2022-09-09T03:04:33;9.43;;;8.63;;
10162;SDS011;5123;52.556;13.384;2022-09-09T03:07:25;10.23;;;9.23;;
10162;SDS011;5123;52.556;13.384;2022-09-09T03:10:17;9.33;;;8.43;;
10162;SDS011;5123;52.556;13.384;2022-09-09T03:13:10;9.53;;;8.60;;
10162;SDS011;5123;52.556;13.384;2022-09-09T03:16:03;13.47;;;9.50;;
10162;SDS011;5123;52.556;13.384;2022-09-09T03:18:55;10.37;;;9.27;;
10162;SDS011;5123;52.556;13.384;2022-09-09T03:21:47;9.40;;;8.43;;
10162;SDS011;5123;52.556;13.384;2022-09-09T03:24:39;9.63;;;8.63;;
10162;SDS011;5123;52.556;13.384;2022-09-09T03:27:30;9.73;;;8.80;;
10162;SDS011;5123;52.556;13.384;2022-09-09T03:30:23;9.80;;;8.90;;
10162;SDS011;5123;52.556;13.384;2022-09-09T03:33:15;9.40;;;8.60;;
10162;SDS011;5123;52.556;13.384;2022-09-09T03:36:07;9.50;;;8.20;;
10162;SDS011;5123;52.556;13.384;2022-09-09T03:39:00;9.17;;;8.37;;
10162;SDS011;5123;52.556;13.384;2022-09-09T03:41:53;10.17;;;8.40;;
10162;SDS011;5123;52.556;13.384;2022-09-09T03:44:44;9.37;;;8.47;;
10162;SDS011;5123;52.556;13.384;2022-09-09T03:47:39;9.07;;;8.17;;
10162;SDS011;5123;52.556;13.384;2022-09-09T03:50:30;9.53;;;8.63;;
10162;SDS011;5123;52.556;13.384;2022-09-09T03:53:22;9.87;;;8.87;;
10162;SDS011;5123;52.556;13.384;2022-09-09T03:56:14;9.00;;;8.00;;
10162;SDS011;5123;52.556;13.384;2022-09-09T03:59:05;9.73;;;8.00;;
10162;SDS011;5123;52.556;13.384;2022-09-09T04:01:56;8.80;;;8.00;;
10162;SDS011;5123;52.556;13.384;2022-09-09T04:04:50;9.27;;;8.37;;
10162;SDS011;5123;52.556;13.384;2022-09-09T04:07:41;8.57;;;7.77;;
10162;SDS011;5123;52.556;13.384;2022-09-09T04:10:33;9.03;;;8.13;;
10162;SDS011;5123;52.556;13.384;2022-09-09T04:13:26;10.90;;;8.20;;
10162;SDS011;5123;52.556;13.384;2022-09-09T04:16:17;9.30;;;8.07;;
10162;SDS011;5123;52.556;13.384;2022-09-09T04:19:10;10.10;;;7.53;;
10162;SDS011;5123;52.556;13.384;2022-09-09T04:22:03;9.60;;;7.60;;
10162;SDS011;5123;52.556;13.384;2022-09-09T04:24:54;11.27;;;8.50;;
10162;SDS011;5123;52.556;13.384;2022-09-09T04:27:45;9.27;;;8.37;;
10162;SDS011;5123;52.556;13.384;2022-09-09T04:30:37;8.07;;;7.27;;
10162;SDS011;5123;52.556;13.384;2022-09-09T04:33:29;10.10;;;7.97;;
10162;SDS011;5123;52.556;13.384;2022-09-09T04:36:25;8.47;;;7.60;;
10162;SDS011;5123;52.556;13.384;2022-09-09T04:39:18;8.50;;;7.63;;
10162;SDS011;5123;52.556;13.384;2022-09-09T04:42:09;9.00;;;7.40;;
10162;SDS011;5123;52.556;13.384;2022-09-09T04:45:03;9.27;;;7.23;;
10162;SDS011;5123;52.556;13.384;2022-09-09T04:47:54;9.63;;;6.77;;
10162;SDS011;5123;52.556;13.384;2022-09-09T04:50:53;8.63;;;7.53;;
10162;SDS011;5123;52.556;13.384;2022-09-09T04:53:44;7.43;;;6.73;;
10162;SDS011;5123;52.556;13.384;2022-09-09T04:56:38;8.50;;;6.30;;
10162;SDS011;5123;52.556;13.384;2022-09-09T04:59:31;7.17;;;6.53;;
10162;SDS011;5123;52.556;13.384;2022-09-09T05:02:22;7.83;;;7.03;;
10162;SDS011;5123;52.556;13.384;2022-09-09T05:05:19;7.93;;;7.13;;
10162;SDS011;5123;52.556;13.384;2022-09-09T05:08:10;8.83;;;6.57;;
10162;SDS011;5123;52.556;13.384;2022-09-09T05:11:01;8.20;;;6.83;;
10162;SDS011;5123;52.556;13.384;2022-09-09T05:13:54;9.63;;;6.83;;
10162;SDS011;5123;52.556;13.384;2022-09-09T05:16:46;6.50;;;5.83;;
10162;SDS011;5123;52.556;13.384;2022-09-09T05:19:39;8.40;;;6.87;;
10162;SDS011;5123;52.556;13.384;2022-09-09T05:22:30;6.77;;;6.10;;
10162;SDS011;5123;52.556;13.384;2022-09-09T05:25:21;7.63;;;6.47;;
10162;SDS011;5123;52.556;13.384;2022-09-09T05:28:14;6.23;;;5.63;;
10162;SDS011;5123;52.556;13.384;2022-09-09T05:31:07;7.00;;;5.90;;
10162;SDS011;5123;52.556;13.384;2022-09-09T05:33:59;10.60;;;5.93;;
10162;SDS011;5123;52.556;13.384;2022-09-09T05:36:50;6.50;;;5.90;;
10162;SDS011;5123;52.556;13.384;2022-09-09T05:39:42;6.60;;;6.00;;
10162;SDS011;5123;52.556;13.384;2022-09-09T05:42:33;6.47;;;5.73;;
10162;SDS011;5123;52.556;13.384;2022-09-09T05:45:24;12.93;;;6.20;;
10162;SDS011;5123;52.556;13.384;2022-09-09T05:48:16;8.40;;;6.23;;
10162;SDS011;5123;52.556;13.384;2022-09-09T05:51:08;6.93;;;5.77;;
10162;SDS011;5123;52.556;13.384;2022-09-09T05:54:00;10.33;;;6.30;;
10162;SDS011;5123;52.556;13.384;2022-09-09T05:56:51;7.67;;;5.57;;
10162;SDS011;5123;52.556;13.384;2022-09-09T05:59:43;6.37;;;5.60;;
10162;SDS011;5123;52.556;13.384;2022-09-09T06:02:34;7.47;;;5.43;;
10162;SDS011;5123;52.556;13.384;2022-09-09T06:05:29;7.50;;;5.80;;
10162;SDS011;5123;52.556;13.384;2022-09-09T06:08:20;7.80;;;6.40;;
10162;SDS011;5123;52.556;13.384;2022-09-09T06:11:12;8.37;;;6.20;;
10162;SDS011;5123;52.556;13.384;2022-09-09T06:14:04;6.43;;;5.83;;
10162;SDS011;5123;52.556;13.384;2022-09-09T06:16:55;7.20;;;5.60;;
10162;SDS011;5123;52.556;13.384;2022-09-09T06:19:46;9.27;;;5.50;;
10162;SDS011;5123;52.556;13.384;2022-09-09T06:22:40;11.07;;;6.57;;
10162;SDS011;5123;52.556;13.384;2022-09-09T06:25:31;6.27;;;5.03;;
10162;SDS011;5123;52.556;13.384;2022-09-09T06:28:24;6.27;;;5.10;;
10162;SDS011;5123;52.556;13.384;2022-09-09T06:31:16;5.20;;;4.70;;
10162;SDS011;5123;52.556;13.384;2022-09-09T06:34:16;10.10;;;4.43;;
10162;SDS011;5123;52.556;13.384;2022-09-09T06:37:08;5.23;;;4.30;;
10162;SDS011;5123;52.556;13.384;2022-09-09T06:40:01;8.93;;;4.63;;
10162;SDS011;5123;52.556;13.384;2022-09-09T06:42:53;4.70;;;4.17;;
10162;SDS011;5123;52.556;13.384;2022-09-09T06:45:52;6.77;;;4.40;;
10162;SDS011;5123;52.556;13.384;2022-09-09T06:48:43;5.70;;;4.20;;
10162;SDS011;5123;52.556;13.384;2022-09-09T06:51:35;5.47;;;4.50;;
10162;SDS011;5123;52.556;13.384;2022-09-09T06:54:27;6.07;;;4.60;;
10162;SDS011;5123;52.556;13.384;2022-09-09T06:57:19;8.57;;;4.93;;
10162;SDS011;5123;52.556;13.384;2022-09-09T07:00:27;9.00;;;4.57;;
10162;SDS011;5123;52.556;13.384;2022-09-09T07:03:18;7.07;;;4.60;;
10162;SDS011;5123;52.556;13.384;2022-09-09T07:09:05;9.40;;;5.33;;
10162;SDS011;5123;52.556;13.384;2022-09-09T07:11:57;6.57;;;4.20;;
10162;SDS011;5123;52.556;13.384;2022-09-09T07:14:50;5.97;;;4.07;;
10162;SDS011;5123;52.556;13.384;2022-09-09T07:17:41;7.33;;;3.50;;
10162;SDS011;5123;52.556;13.384;2022-09-09T07:20:32;6.43;;;3.80;;
10162;SDS011;5123;52.556;13.384;2022-09-09T07:23:24;7.53;;;3.53;;
10162;SDS011;5123;52.556;13.384;2022-09-09T07:26:16;6.33;;;3.37;;
10162;SDS011;5123;52.556;13.384;2022-09-09T07:29:09;5.40;;;3.87;;
10162;SDS011;5123;52.556;13.384;2022-09-09T07:32:10;5.20;;;3.70;;
10162;SDS011;5123;52.556;13.384;2022-09-09T07:35:01;6.60;;;3.67;;
10162;SDS011;5123;52.556;13.384;2022-09-09T07:37:53;5.50;;;3.90;;
10162;SDS011;5123;52.556;13.384;2022-09-09T07:40:44;5.57;;;3.40;;
10162;SDS011;5123;52.556;13.384;2022-09-09T07:43:35;3.43;;;3.13;;
10162;SDS011;5123;52.556;13.384;2022-09-09T07:46:26;4.50;;;3.23;;
10162;SDS011;5123;52.556;13.384;2022-09-09T07:49:19;7.90;;;3.63;;
10162;SDS011;5123;52.556;13.384;2022-09-09T07:52:20;5.60;;;3.10;;
10162;SDS011;5123;52.556;13.384;2022-09-09T07:55:11;4.47;;;3.50;;
10162;SDS011;5123;52.556;13.384;2022-09-09T07:58:02;2.87;;;2.50;;
10162;SDS011;5123;52.556;13.384;2022-09-09T08:00:53;8.50;;;3.23;;
10162;SDS011;5123;52.556;13.384;2022-09-09T08:03:45;7.23;;;4.90;;
10162;SDS011;5123;52.556;13.384;2022-09-09T08:06:38;5.77;;;2.70;;
10162;SDS011;5123;52.556;13.384;2022-09-09T08:09:30;21.33;;;6.93;;
10162;SDS011;5123;52.556;13.384;2022-09-09T08:12:23;18.43;;;11.43;;
10162;SDS011;5123;52.556;13.384;2022-09-09T08:15:14;18.67;;;7.40;;
10162;SDS011;5123;52.556;13.384;2022-09-09T08:18:08;13.73;;;4.83;;
10162;SDS011;5123;52.556;13.384;2022-09-09T08:21:04;4.57;;;2.40;;
10162;SDS011;5123;52.556;13.384;2022-09-09T08:23:58;7.83;;;3.27;;
10162;SDS011;5123;52.556;13.384;2022-09-09T08:26:49;3.20;;;2.73;;
10162;SDS011;5123;52.556;13.384;2022-09-09T08:29:40;6.53;;;2.70;;
10162;SDS011;5123;52.556;13.384;2022-09-09T08:32:32;7.13;;;2.50;;
10162;SDS011;5123;52.556;13.384;2022-09-09T08:35:24;3.07;;;2.50;;
10162;SDS011;5123;52.556;13.384;2022-09-09T08:38:15;7.47;;;2.43;;
10162;SDS011;5123;52.556;13.384;2022-09-09T08:41:17;6.27;;;2.33;;
10162;SDS011;5123;52.556;13.384;2022-09-09T08:44:14;5.17;;;2.47;;
10162;SDS011;5123;52.556;13.384;2022-09-09T08:47:10;4.00;;;2.53;;
10162;SDS011;5123;52.556;13.384;2022-09-09T08:50:05;7.00;;;2.77;;
10162;SDS011;5123;52.556;13.384;2022-09-09T08:53:00;6.93;;;4.60;;
10162;SDS011;5123;52.556;13.384;2022-09-09T08:55:53;9.80;;;6.50;;
10162;SDS011;5123;52.556;13.384;2022-09-09T08:58:47;7.07;;;4.57;;
10162;SDS011;5123;52.556;13.384;2022-09-09T09:01:44;15.47;;;10.30;;
10162;SDS011;5123;52.556;13.384;2022-09-09T09:04:46;4.37;;;3.80;;
10162;SDS011;5123;52.556;13.384;2022-09-09T09:07:45;5.83;;;2.13;;
10162;SDS011;5123;52.556;13.384;2022-09-09T09:10:44;4.83;;;2.77;;
10162;SDS011;5123;52.556;13.384;2022-09-09T09:13:42;5.27;;;4.73;;
10162;SDS011;5123;52.556;13.384;2022-09-09T09:16:45;6.70;;;5.07;;
10162;SDS011;5123;52.556;13.384;2022-09-09T09:19:39;7.10;;;3.53;;
10162;SDS011;5123;52.556;13.384;2022-09-09T09:22:32;5.63;;;4.37;;
10162;SDS011;5123;52.556;13.384;2022-09-09T09:25:26;4.00;;;3.53;;
10162;SDS011;5123;52.556;13.384;2022-09-09T09:28:22;8.17;;;4.00;;
10162;SDS011;5123;52.556;13.384;2022-09-09T09:31:14;3.40;;;2.73;;
10162;SDS011;5123;52.556;13.384;2022-09-09T09:34:08;11.23;;;2.47;;
10162;SDS011;5123;52.556;13.384;2022-09-09T09:37:00;4.47;;;2.97;;
10162;SDS011;5123;52.556;13.384;2022-09-09T09:39:53;8.80;;;2.87;;
10162;SDS011;5123;52.556;13.384;2022-09-09T09:42:52;2.40;;;1.87;;
10162;SDS011;5123;52.556;13.384;2022-09-09T09:45:44;3.57;;;2.43;;
10162;SDS011;5123;52.556;13.384;2022-09-09T09:48:58;4.63;;;2.47;;
10162;SDS011;5123;52.556;13.384;2022-09-09T09:51:51;8.03;;;4.10;;
10162;SDS011;5123;52.556;13.384;2022-09-09T09:54:43;6.80;;;3.73;;
10162;SDS011;5123;52.556;13.384;2022-09-09T09:57:35;7.97;;;2.77;;
10162;SDS011;5123;52.556;13.384;2022-09-09T10:00:28;3.67;;;2.20;;
10162;SDS011;5123;52.556;13.384;2022-09-09T10:03:26;3.80;;;2.40;;
10162;SDS011;5123;52.556;13.384;2022-09-09T10:06:28;3.87;;;2.40;;
10162;SDS011;5123;52.556;13.384;2022-09-09T10:09:22;5.03;;;2.17;;
10162;SDS011;5123;52.556;13.384;2022-09-09T10:12:16;4.93;;;2.43;;
10162;SDS011;5123;52.556;13.384;2022-09-09T10:15:14;4.43;;;2.23;;
10162;SDS011;5123;52.556;13.384;2022-09-09T10:18:15;3.00;;;2.53;;
10162;SDS011;5123;52.556;13.384;2022-09-09T10:21:12;4.67;;;2.40;;
10162;SDS011;5123;52.556;13.384;2022-09-09T10:24:11;3.97;;;2.30;;
10162;SDS011;5123;52.556;13.384;2022-09-09T10:27:09;4.23;;;3.13;;
10162;SDS011;5123;52.556;13.384;2022-09-09T10:30:05;6.63;;;2.13;;
10162;SDS011;5123;52.556;13.384;2022-09-09T10:33:01;5.67;;;2.87;;
10162;SDS011;5123;52.556;13.384;2022-09-09T10:35:58;5.10;;;1.90;;
10162;SDS011;5123;52.556;13.384;2022-09-09T10:38:52;6.30;;;2.13;;
10162;SDS011;5123;52.556;13.384;2022-09-09T10:41:45;5.37;;;2.27;;
10162;SDS011;5123;52.556;13.384;2022-09-09T10:44:53;5.17;;;3.40;;
10162;SDS011;5123;52.556;13.384;2022-09-09T10:47:51;4.50;;;2.90;;
10162;SDS011;5123;52.556;13.384;2022-09-09T10:50:50;4.80;;;2.70;;
10162;SDS011;5123;52.556;13.384;2022-09-09T10:53:57;8.60;;;5.10;;
10162;SDS011;5123;52.556;13.384;2022-09-09T10:56:55;18.30;;;13.23;;
10162;SDS011;5123;52.556;13.384;2022-09-09T10:59:48;14.60;;;12.27;;
10162;SDS011;5123;52.556;13.384;2022-09-09T11:02:44;11.83;;;9.33;;
10162;SDS011;5123;52.556;13.384;2022-09-09T11:05:39;7.10;;;4.63;;
10162;SDS011;5123;52.556;13.384;2022-09-09T11:08:32;6.37;;;3.00;;
10162;SDS011;5123;52.556;13.384;2022-09-09T11:11:26;3.53;;;2.17;;
10162;SDS011;5123;52.556;13.384;2022-09-09T11:14:21;2.43;;;1.90;;
10162;SDS011;5123;52.556;13.384;2022-09-09T11:17:15;3.97;;;2.60;;
10162;SDS011;5123;52.556;13.384;2022-09-09T11:20:12;4.50;;;2.57;;
10162;SDS011;5123;52.556;13.384;2022-09-09T11:23:04;4.93;;;1.97;;
10162;SDS011;5123;52.556;13.384;2022-09-09T11:26:00;4.57;;;2.20;;
10162;SDS011;5123;52.556;13.384;2022-09-09T11:28:55;4.10;;;1.70;;
10162;SDS011;5123;52.556;13.384;2022-09-09T11:31:57;4.97;;;2.33;;
10162;SDS011;5123;52.556;13.384;2022-09-09T11:34:53;4.63;;;3.40;;
10162;SDS011;5123;52.556;13.384;2022-09-09T11:37:52;7.63;;;4.53;;
10162;SDS011;5123;52.556;13.384;2022-09-09T11:40:45;6.20;;;4.40;;
10162;SDS011;5123;52.556;13.384;2022-09-09T11:43:38;5.20;;;2.63;;
10162;SDS011;5123;52.556;13.384;2022-09-09T11:46:32;4.07;;;2.77;;
10162;SDS011;5123;52.556;13.384;2022-09-09T11:49:26;4.33;;;2.50;;
10162;SDS011;5123;52.556;13.384;2022-09-09T11:52:21;3.63;;;2.30;;
10162;SDS011;5123;52.556;13.384;2022-09-09T11:55:24;7.00;;;2.77;;
10162;SDS011;5123;52.556;13.384;2022-09-09T11:58:16;6.77;;;5.47;;
10162;SDS011;5123;52.556;13.384;2022-09-09T12:01:33;6.17;;;4.83;;
10162;SDS011;5123;52.556;13.384;2022-09-09T12:04:28;17.47;;;14.67;;
10162;SDS011;5123;52.556;13.384;2022-09-09T12:07:29;6.43;;;5.17;;
10162;SDS011;5123;52.556;13.384;2022-09-09T12:10:24;2.90;;;2.60;;
10162;SDS011;5123;52.556;13.384;2022-09-09T12:13:17;6.07;;;4.17;;
10162;SDS011;5123;52.556;13.384;2022-09-09T12:16:26;7.73;;;2.97;;
10162;SDS011;5123;52.556;13.384;2022-09-09T12:19:21;5.43;;;3.50;;
10162;SDS011;5123;52.556;13.384;2022-09-09T12:22:26;12.33;;;8.07;;
10162;SDS011;5123;52.556;13.384;2022-09-09T12:25:26;4.47;;;3.13;;
10162;SDS011;5123;52.556;13.384;2022-09-09T12:28:20;6.00;;;3.40;;
10162;SDS011;5123;52.556;13.384;2022-09-09T12:31:14;5.00;;;3.20;;
10162;SDS011;5123;52.556;13.384;2022-09-09T12:34:09;4.87;;;2.50;;
10162;SDS011;5123;52.556;13.384;2022-09-09T12:37:02;6.60;;;3.10;;
10162;SDS011;5123;52.556;13.384;2022-09-09T12:39:55;6.17;;;2.13;;
10162;SDS011;5123;52.556;13.384;2022-09-09T12:42:48;4.73;;;2.20;;
10162;SDS011;5123;52.556;13.384;2022-09-09T12:45:40;4.33;;;2.10;;
10162;SDS011;5123;52.556;13.384;2022-09-09T12:48:33;5.47;;;2.40;;
10162;SDS011;5123;52.556;13.384;2022-09-09T12:51:28;11.53;;;6.30;;
10162;SDS011;5123;52.556;13.384;2022-09-09T12:54:19;9.90;;;7.30;;
10162;SDS011;5123;52.556;13.384;2022-09-09T12:57:12;15.33;;;11.13;;
10162;SDS011;5123;52.556;13.384;2022-09-09T13:00:06;8.77;;;6.73;;
10162;SDS011;5123;52.556;13.384;2022-09-09T13:03:00;13.37;;;10.00;;
10162;SDS011;5123;52.556;13.384;2022-09-09T13:05:52;26.43;;;23.60;;
10162;SDS011;5123;52.556;13.384;2022-09-09T13:08:44;5.97;;;4.60;;
10162;SDS011;5123;52.556;13.384;2022-09-09T13:11:36;9.80;;;6.17;;
10162;SDS011;5123;52.556;13.384;2022-09-09T13:14:29;7.37;;;4.40;;
10162;SDS011;5123;52.556;13.384;2022-09-09T13:17:26;8.93;;;7.13;;
10162;SDS011;5123;52.556;13.384;2022-09-09T13:20:19;2.60;;;2.37;;
10162;SDS011;5123;52.556;13.384;2022-09-09T13:23:11;5.23;;;2.60;;
10162;SDS011;5123;52.556;13.384;2022-09-09T13:26:03;8.60;;;4.07;;
10162;SDS011;5123;52.556;13.384;2022-09-09T13:29:07;5.20;;;3.73;;
10162;SDS011;5123;52.556;13.384;2022-09-09T13:32:03;5.77;;;2.93;;
10162;SDS011;5123;52.556;13.384;2022-09-09T13:34:57;9.33;;;7.50;;
10162;SDS011;5123;52.556;13.384;2022-09-09T13:37:49;16.70;;;13.80;;
10162;SDS011;5123;52.556;13.384;2022-09-09T13:43:49;10.13;;;8.10;;
10162;SDS011;5123;52.556;13.384;2022-09-09T13:46:41;6.10;;;4.90;;
10162;SDS011;5123;52.556;13.384;2022-09-09T13:49:33;3.87;;;2.37;;
10162;SDS011;5123;52.556;13.384;2022-09-09T13:52:27;4.10;;;2.10;;
10162;SDS011;5123;52.556;13.384;2022-09-09T13:55:21;14.77;;;11.40;;
10162;SDS011;5123;52.556;13.384;2022-09-09T13:58:14;18.50;;;13.17;;
10162;SDS011;5123;52.556;13.384;2022-09-09T14:01:08;23.27;;;20.27;;
10162;SDS011;5123;52.556;13.384;2022-09-09T14:04:01;35.50;;;31.37;;
10162;SDS011;5123;52.556;13.384;2022-09-09T14:06:54;6.90;;;5.70;;
10162;SDS011;5123;52.556;13.384;2022-09-09T14:09:49;4.20;;;2.43;;
10162;SDS011;5123;52.556;13.384;2022-09-09T14:12:46;4.53;;;2.13;;
10162;SDS011;5123;52.556;13.384;2022-09-09T14:15:39;3.83;;;2.20;;
10162;SDS011;5123;52.556;13.384;2022-09-09T14:18:31;3.87;;;2.10;;
10162;SDS011;5123;52.556;13.384;2022-09-09T14:21:24;5.47;;;3.70;;
10162;SDS011;5123;52.556;13.384;2022-09-09T14:24:16;4.00;;;2.50;;
10162;SDS011;5123;52.556;13.384;2022-09-09T14:27:10;11.53;;;6.97;;
10162;SDS011;5123;52.556;13.384;2022-09-09T14:30:01;8.87;;;5.53;;
10162;SDS011;5123;52.556;13.384;2022-09-09T14:32:54;3.17;;;2.17;;
10162;SDS011;5123;52.556;13.384;2022-09-09T14:35:46;6.60;;;2.27;;
10162;SDS011;5123;52.556;13.384;2022-09-09T14:38:40;3.40;;;1.80;;
10162;SDS011;5123;52.556;13.384;2022-09-09T14:41:33;7.07;;;3.30;;
10162;SDS011;5123;52.556;13.384;2022-09-09T14:44:26;10.03;;;7.30;;
10162;SDS011;5123;52.556;13.384;2022-09-09T14:47:17;6.43;;;3.60;;
10162;SDS011;5123;52.556;13.384;2022-09-09T14:50:09;6.67;;;3.70;;
10162;SDS011;5123;52.556;13.384;2022-09-09T14:53:02;4.07;;;2.70;;
10162;SDS011;5123;52.556;13.384;2022-09-09T14:55:53;6.97;;;2.13;;
10162;SDS011;5123;52.556;13.384;2022-09-09T14:58:53;6.60;;;2.60;;
10162;SDS011;5123;52.556;13.384;2022-09-09T15:01:46;3.57;;;1.40;;
10162;SDS011;5123;52.556;13.384;2022-09-09T15:04:38;3.40;;;1.87;;
10162;SDS011;5123;52.556;13.384;2022-09-09T15:07:30;7.43;;;4.17;;
10162;SDS011;5123;52.556;13.384;2022-09-09T15:10:21;14.63;;;12.23;;
10162;SDS011;5123;52.556;13.384;2022-09-09T15:13:14;13.80;;;11.00;;
10162;SDS011;5123;52.556;13.384;2022-09-09T15:16:07;6.43;;;3.97;;
10162;SDS011;5123;52.556;13.384;2022-09-09T15:19:00;3.97;;;3.03;;
10162;SDS011;5123;52.556;13.384;2022-09-09T15:21:52;9.53;;;3.90;;
10162;SDS011;5123;52.556;13.384;2022-09-09T15:24:44;4.87;;;2.77;;
10162;SDS011;5123;52.556;13.384;2022-09-09T15:27:35;7.10;;;2.63;;
10162;SDS011;5123;52.556;13.384;2022-09-09T15:30:29;10.93;;;8.70;;
10162;SDS011;5123;52.556;13.384;2022-09-09T15:33:21;5.67;;;3.80;;
10162;SDS011;5123;52.556;13.384;2022-09-09T15:36:14;11.13;;;6.33;;
10162;SDS011;5123;52.556;13.384;2022-09-09T15:39:06;8.27;;;4.70;;
10162;SDS011;5123;52.556;13.384;2022-09-09T15:41:57;8.50;;;7.00;;
10162;SDS011;5123;52.556;13.384;2022-09-09T15:44:51;10.43;;;8.20;;
10162;SDS011;5123;52.556;13.384;2022-09-09T15:47:42;7.97;;;4.40;;
10162;SDS011;5123;52.556;13.384;2022-09-09T15:50:33;5.00;;;3.17;;
10162;SDS011;5123;52.556;13.384;2022-09-09T15:53:27;4.93;;;2.77;;
10162;SDS011;5123;52.556;13.384;2022-09-09T15:56:19;5.07;;;3.20;;
10162;SDS011;5123;52.556;13.384;2022-09-09T15:59:11;4.77;;;3.50;;
10162;SDS011;5123;52.556;13.384;2022-09-09T16:02:02;7.50;;;5.47;;
10162;SDS011;5123;52.556;13.384;2022-09-09T16:04:54;8.00;;;5.53;;
10162;SDS011;5123;52.556;13.384;2022-09-09T16:07:47;18.93;;;15.97;;
10162;SDS011;5123;52.556;13.384;2022-09-09T16:10:40;20.23;;;17.50;;
10162;SDS011;5123;52.556;13.384;2022-09-09T16:13:32;10.50;;;7.33;;
10162;SDS011;5123;52.556;13.384;2022-09-09T16:16:26;7.83;;;5.50;;
10162;SDS011;5123;52.556;13.384;2022-09-09T16:19:17;7.17;;;4.60;;
10162;SDS011;5123;52.556;13.384;2022-09-09T16:22:09;7.43;;;3.90;;
10162;SDS011;5123;52.556;13.384;2022-09-09T16:25:00;15.50;;;12.27;;
10162;SDS011;5123;52.556;13.384;2022-09-09T16:27:53;9.23;;;7.03;;
10162;SDS011;5123;52.556;13.384;2022-09-09T16:30:44;7.90;;;5.07;;
10162;SDS011;5123;52.556;13.384;2022-09-09T16:33:36;9.10;;;7.90;;
10162;SDS011;5123;52.556;13.384;2022-09-09T16:36:28;13.80;;;11.07;;
10162;SDS011;5123;52.556;13.384;2022-09-09T16:39:20;14.33;;;11.87;;
10162;SDS011;5123;52.556;13.384;2022-09-09T16:42:11;12.33;;;9.77;;
10162;SDS011;5123;52.556;13.384;2022-09-09T16:45:04;10.50;;;8.43;;
10162;SDS011;5123;52.556;13.384;2022-09-09T16:47:57;8.50;;;6.73;;
10162;SDS011;5123;52.556;13.384;2022-09-09T16:50:48;8.53;;;6.47;;
10162;SDS011;5123;52.556;13.384;2022-09-09T16:53:40;9.67;;;7.30;;
10162;SDS011;5123;52.556;13.384;2022-09-09T16:56:33;7.20;;;5.87;;
10162;SDS011;5123;52.556;13.384;2022-09-09T16:59:27;10.40;;;5.50;;
10162;SDS011;5123;52.556;13.384;2022-09-09T17:02:19;10.33;;;6.10;;
10162;SDS011;5123;52.556;13.384;2022-09-09T17:05:11;9.00;;;6.47;;
10162;SDS011;5123;52.556;13.384;2022-09-09T17:08:02;9.47;;;6.20;;
10162;SDS011;5123;52.556;13.384;2022-09-09T17:10:55;6.80;;;4.73;;
10162;SDS011;5123;52.556;13.384;2022-09-09T17:13:47;6.40;;;4.20;;
10162;SDS011;5123;52.556;13.384;2022-09-09T17:16:38;5.03;;;3.40;;
10162;SDS011;5123;52.556;13.384;2022-09-09T17:19:32;5.47;;;3.30;;
10162;SDS011;5123;52.556;13.384;2022-09-09T17:22:23;5.37;;;3.10;;
10162;SDS011;5123;52.556;13.384;2022-09-09T17:25:16;5.30;;;2.77;;
10162;SDS011;5123;52.556;13.384;2022-09-09T17:28:08;4.80;;;2.60;;
10162;SDS011;5123;52.556;13.384;2022-09-09T17:30:59;32.30;;;28.83;;